sensor_id;sensor_type;location;lat;lon;timestamp;P1;durP1;ratioP1;P2;durP2;ratioP2
11066;SDS011;29763;50.904;5.530;2023-11-21T00:00:48;24.40;;;12.77;;
11066;SDS011;29763;50.904;5.530;2023-11-21T00:03:18;24.38;;;13.90;;
11066;SDS011;29763;50.904;5.530;2023-11-21T00:06:14;25.27;;;13.87;;
11066;SDS011;29763;50.904;5.530;2023-11-21T00:08:52;22.75;;;12.63;;
11066;SDS011;29763;50.904;5.530;2023-11-21T00:11:20;25.08;;;13.82;;
11066;SDS011;29763;50.904;5.530;2023-11-21T00:14:04;26.40;;;12.75;;
11066;SDS011;29763;50.904;5.530;2023-11-21T00:16:38;24.43;;;13.27;;
11066;SDS011;29763;50.904;5.530;2023-11-21T00:19:17;26.83;;;13.07;;
11066;SDS011;29763;50.904;5.530;2023-11-21T00:21:52;25.67;;;12.80;;
11066;SDS011;29763;50.904;5.530;2023-11-21T00:24:24;25.55;;;13.10;;
11066;SDS011;29763;50.904;5.530;2023-11-21T00:26:51;22.97;;;12.87;;
11066;SDS011;29763;50.904;5.530;2023-11-21T00:29:19;23.52;;;13.52;;
11066;SDS011;29763;50.904;5.530;2023-11-21T00:31:54;21.43;;;11.80;;
11066;SDS011;29763;50.904;5.530;2023-11-21T00:34:23;26.60;;;12.97;;
11066;SDS011;29763;50.904;5.530;2023-11-21T00:36:51;25.25;;;14.15;;
11066;SDS011;29763;50.904;5.530;2023-11-21T00:39:26;24.43;;;13.07;;
11066;SDS011;29763;50.904;5.530;2023-11-21T00:41:54;24.65;;;13.20;;
11066;SDS011;29763;50.904;5.530;2023-11-21T00:44:32;27.13;;;14.07;;
11066;SDS011;29763;50.904;5.530;2023-11-21T00:47:04;25.00;;;13.18;;
11066;SDS011;29763;50.904;5.530;2023-11-21T00:52:38;24.58;;;13.05;;
11066;SDS011;29763;50.904;5.530;2023-11-21T00:55:15;26.45;;;13.48;;
11066;SDS011;29763;50.904;5.530;2023-11-21T00:57:58;24.27;;;13.70;;
11066;SDS011;29763;50.904;5.530;2023-11-21T01:00:49;23.98;;;13.85;;
11066;SDS011;29763;50.904;5.530;2023-11-21T01:03:18;25.42;;;13.25;;
11066;SDS011;29763;50.904;5.530;2023-11-21T01:05:54;23.90;;;13.53;;
11066;SDS011;29763;50.904;5.530;2023-11-21T01:08:20;26.60;;;14.60;;
11066;SDS011;29763;50.904;5.530;2023-11-21T01:10:55;26.47;;;13.80;;
11066;SDS011;29763;50.904;5.530;2023-11-21T01:13:26;24.33;;;13.07;;
11066;SDS011;29763;50.904;5.530;2023-11-21T01:16:04;24.63;;;13.90;;
11066;SDS011;29763;50.904;5.530;2023-11-21T01:21:56;24.70;;;13.37;;
11066;SDS011;29763;50.904;5.530;2023-11-21T01:25:12;25.10;;;13.75;;
11066;SDS011;29763;50.904;5.530;2023-11-21T01:27:24;24.13;;;13.87;;
11066;SDS011;29763;50.904;5.530;2023-11-21T01:29:58;23.67;;;13.18;;
11066;SDS011;29763;50.904;5.530;2023-11-21T01:32:52;22.03;;;13.30;;
11066;SDS011;29763;50.904;5.530;2023-11-21T01:35:19;22.57;;;13.33;;
11066;SDS011;29763;50.904;5.530;2023-11-21T01:37:45;25.77;;;14.10;;
11066;SDS011;29763;50.904;5.530;2023-11-21T01:40:16;22.90;;;14.05;;
11066;SDS011;29763;50.904;5.530;2023-11-21T01:42:42;23.03;;;12.93;;
11066;SDS011;29763;50.904;5.530;2023-11-21T01:45:29;23.98;;;13.82;;
11066;SDS011;29763;50.904;5.530;2023-11-21T01:47:59;26.40;;;13.65;;
11066;SDS011;29763;50.904;5.530;2023-11-21T01:50:41;25.37;;;14.47;;
11066;SDS011;29763;50.904;5.530;2023-11-21T01:53:12;23.80;;;13.60;;
11066;SDS011;29763;50.904;5.530;2023-11-21T01:55:47;25.30;;;13.43;;
11066;SDS011;29763;50.904;5.530;2023-11-21T01:58:16;24.05;;;13.50;;
11066;SDS011;29763;50.904;5.530;2023-11-21T02:00:52;22.38;;;13.20;;
11066;SDS011;29763;50.904;5.530;2023-11-21T02:03:23;23.15;;;13.20;;
11066;SDS011;29763;50.904;5.530;2023-11-21T02:05:54;26.20;;;13.50;;
11066;SDS011;29763;50.904;5.530;2023-11-21T02:08:26;25.48;;;14.07;;
11066;SDS011;29763;50.904;5.530;2023-11-21T02:11:54;26.33;;;14.73;;
11066;SDS011;29763;50.904;5.530;2023-11-21T02:14:35;25.53;;;13.63;;
11066;SDS011;29763;50.904;5.530;2023-11-21T02:17:11;24.77;;;14.07;;
11066;SDS011;29763;50.904;5.530;2023-11-21T02:19:40;23.45;;;13.63;;
11066;SDS011;29763;50.904;5.530;2023-11-21T02:22:12;24.45;;;13.43;;
11066;SDS011;29763;50.904;5.530;2023-11-21T02:24:43;28.05;;;14.93;;
11066;SDS011;29763;50.904;5.530;2023-11-21T02:27:23;28.88;;;15.52;;
11066;SDS011;29763;50.904;5.530;2023-11-21T02:29:54;32.72;;;16.15;;
11066;SDS011;29763;50.904;5.530;2023-11-21T02:32:22;31.00;;;16.15;;
11066;SDS011;29763;50.904;5.530;2023-11-21T02:35:02;28.95;;;15.40;;
11066;SDS011;29763;50.904;5.530;2023-11-21T02:37:32;28.33;;;15.38;;
11066;SDS011;29763;50.904;5.530;2023-11-21T02:40:11;32.10;;;15.53;;
11066;SDS011;29763;50.904;5.530;2023-11-21T02:42:48;27.25;;;14.05;;
11066;SDS011;29763;50.904;5.530;2023-11-21T02:45:24;29.77;;;16.20;;
11066;SDS011;29763;50.904;5.530;2023-11-21T02:47:51;32.53;;;16.60;;
11066;SDS011;29763;50.904;5.530;2023-11-21T02:50:23;29.92;;;15.65;;
11066;SDS011;29763;50.904;5.530;2023-11-21T02:52:56;30.40;;;15.40;;
11066;SDS011;29763;50.904;5.530;2023-11-21T02:55:33;27.90;;;14.93;;
11066;SDS011;29763;50.904;5.530;2023-11-21T02:58:03;29.20;;;15.98;;
11066;SDS011;29763;50.904;5.530;2023-11-21T03:00:33;30.08;;;15.43;;
11066;SDS011;29763;50.904;5.530;2023-11-21T03:03:06;30.25;;;15.98;;
11066;SDS011;29763;50.904;5.530;2023-11-21T03:05:55;33.30;;;15.45;;
11066;SDS011;29763;50.904;5.530;2023-11-21T03:08:21;28.00;;;15.23;;
11066;SDS011;29763;50.904;5.530;2023-11-21T03:10:58;27.55;;;14.93;;
11066;SDS011;29763;50.904;5.530;2023-11-21T03:13:46;32.37;;;15.47;;
11066;SDS011;29763;50.904;5.530;2023-11-21T03:16:19;30.60;;;15.80;;
11066;SDS011;29763;50.904;5.530;2023-11-21T03:18:58;33.13;;;16.50;;
11066;SDS011;29763;50.904;5.530;2023-11-21T03:21:25;31.17;;;16.13;;
11066;SDS011;29763;50.904;5.530;2023-11-21T03:23:59;37.95;;;16.23;;
11066;SDS011;29763;50.904;5.530;2023-11-21T03:26:40;30.20;;;15.10;;
11066;SDS011;29763;50.904;5.530;2023-11-21T03:29:06;31.10;;;15.30;;
11066;SDS011;29763;50.904;5.530;2023-11-21T03:31:44;32.55;;;15.77;;
11066;SDS011;29763;50.904;5.530;2023-11-21T03:34:15;30.90;;;15.50;;
11066;SDS011;29763;50.904;5.530;2023-11-21T03:36:48;30.87;;;15.43;;
11066;SDS011;29763;50.904;5.530;2023-11-21T03:39:27;33.47;;;15.07;;
11066;SDS011;29763;50.904;5.530;2023-11-21T03:41:55;28.67;;;14.90;;
11066;SDS011;29763;50.904;5.530;2023-11-21T03:44:35;27.42;;;15.45;;
11066;SDS011;29763;50.904;5.530;2023-11-21T03:47:03;35.05;;;15.13;;
11066;SDS011;29763;50.904;5.530;2023-11-21T03:49:33;33.70;;;15.57;;
11066;SDS011;29763;50.904;5.530;2023-11-21T03:52:13;31.50;;;15.25;;
11066;SDS011;29763;50.904;5.530;2023-11-21T03:54:57;33.83;;;15.73;;
11066;SDS011;29763;50.904;5.530;2023-11-21T03:57:30;34.30;;;15.43;;
11066;SDS011;29763;50.904;5.530;2023-11-21T04:06:47;36.63;;;17.42;;
11066;SDS011;29763;50.904;5.530;2023-11-21T04:12:06;39.90;;;17.57;;
11066;SDS011;29763;50.904;5.530;2023-11-21T04:24:07;37.97;;;16.80;;
11066;SDS011;29763;50.904;5.530;2023-11-21T04:27:00;40.70;;;17.00;;
11066;SDS011;29763;50.904;5.530;2023-11-21T04:29:31;45.53;;;18.95;;
11066;SDS011;29763;50.904;5.530;2023-11-21T04:31:57;46.70;;;19.43;;
11066;SDS011;29763;50.904;5.530;2023-11-21T04:34:25;41.15;;;18.05;;
11066;SDS011;29763;50.904;5.530;2023-11-21T04:37:01;43.65;;;18.75;;
11066;SDS011;29763;50.904;5.530;2023-11-21T04:39:31;45.90;;;19.40;;
11066;SDS011;29763;50.904;5.530;2023-11-21T04:42:00;39.10;;;17.60;;
11066;SDS011;29763;50.904;5.530;2023-11-21T04:44:36;40.85;;;18.98;;
11066;SDS011;29763;50.904;5.530;2023-11-21T04:47:14;43.42;;;18.08;;
11066;SDS011;29763;50.904;5.530;2023-11-21T04:49:43;46.05;;;19.20;;
11066;SDS011;29763;50.904;5.530;2023-11-21T04:52:16;43.75;;;17.90;;
11066;SDS011;29763;50.904;5.530;2023-11-21T04:54:45;47.08;;;18.38;;
11066;SDS011;29763;50.904;5.530;2023-11-21T04:57:12;39.60;;;17.75;;
11066;SDS011;29763;50.904;5.530;2023-11-21T04:59:41;41.60;;;17.40;;
11066;SDS011;29763;50.904;5.530;2023-11-21T05:02:11;40.13;;;16.15;;
11066;SDS011;29763;50.904;5.530;2023-11-21T05:04:42;40.75;;;17.20;;
11066;SDS011;29763;50.904;5.530;2023-11-21T05:07:20;41.97;;;17.57;;
11066;SDS011;29763;50.904;5.530;2023-11-21T05:09:53;38.83;;;17.05;;
11066;SDS011;29763;50.904;5.530;2023-11-21T05:12:24;40.57;;;17.13;;
11066;SDS011;29763;50.904;5.530;2023-11-21T05:14:53;46.00;;;18.30;;
11066;SDS011;29763;50.904;5.530;2023-11-21T05:17:21;42.03;;;17.88;;
11066;SDS011;29763;50.904;5.530;2023-11-21T05:19:50;41.85;;;17.27;;
11066;SDS011;29763;50.904;5.530;2023-11-21T05:22:26;40.33;;;16.83;;
11066;SDS011;29763;50.904;5.530;2023-11-21T05:25:13;40.77;;;16.83;;
11066;SDS011;29763;50.904;5.530;2023-11-21T05:27:48;36.38;;;16.13;;
11066;SDS011;29763;50.904;5.530;2023-11-21T05:30:16;39.00;;;16.70;;
11066;SDS011;29763;50.904;5.530;2023-11-21T05:32:42;43.47;;;17.00;;
11066;SDS011;29763;50.904;5.530;2023-11-21T05:35:08;43.90;;;18.50;;
11066;SDS011;29763;50.904;5.530;2023-11-21T05:37:38;50.88;;;17.48;;
11066;SDS011;29763;50.904;5.530;2023-11-21T05:40:06;51.53;;;19.77;;
11066;SDS011;29763;50.904;5.530;2023-11-21T05:42:35;46.90;;;18.15;;
11066;SDS011;29763;50.904;5.530;2023-11-21T05:45:27;44.13;;;16.70;;
11066;SDS011;29763;50.904;5.530;2023-11-21T05:47:55;50.00;;;18.80;;
11066;SDS011;29763;50.904;5.530;2023-11-21T05:50:21;50.72;;;18.13;;
11066;SDS011;29763;50.904;5.530;2023-11-21T05:52:48;53.17;;;18.10;;
11066;SDS011;29763;50.904;5.530;2023-11-21T05:55:18;50.03;;;18.42;;
11066;SDS011;29763;50.904;5.530;2023-11-21T05:57:48;54.13;;;18.67;;
11066;SDS011;29763;50.904;5.530;2023-11-21T06:00:20;45.27;;;17.43;;
11066;SDS011;29763;50.904;5.530;2023-11-21T06:02:53;50.03;;;17.00;;
11066;SDS011;29763;50.904;5.530;2023-11-21T06:05:30;52.73;;;19.00;;
11066;SDS011;29763;50.904;5.530;2023-11-21T06:08:01;55.10;;;18.55;;
11066;SDS011;29763;50.904;5.530;2023-11-21T06:10:28;48.33;;;17.67;;
11066;SDS011;29763;50.904;5.530;2023-11-21T06:12:56;51.80;;;17.85;;
11066;SDS011;29763;50.904;5.530;2023-11-21T06:15:40;49.00;;;16.85;;
11066;SDS011;29763;50.904;5.530;2023-11-21T06:18:15;53.13;;;17.67;;
11066;SDS011;29763;50.904;5.530;2023-11-21T06:20:47;50.95;;;18.42;;
11066;SDS011;29763;50.904;5.530;2023-11-21T06:23:23;50.70;;;17.27;;
11066;SDS011;29763;50.904;5.530;2023-11-21T06:26:01;49.40;;;17.52;;
11066;SDS011;29763;50.904;5.530;2023-11-21T06:28:33;48.58;;;18.23;;
11066;SDS011;29763;50.904;5.530;2023-11-21T06:31:00;48.23;;;17.73;;
11066;SDS011;29763;50.904;5.530;2023-11-21T06:33:50;41.55;;;16.02;;
11066;SDS011;29763;50.904;5.530;2023-11-21T06:36:18;43.83;;;16.67;;
11066;SDS011;29763;50.904;5.530;2023-11-21T06:38:49;47.80;;;16.70;;
11066;SDS011;29763;50.904;5.530;2023-11-21T06:41:26;49.33;;;17.77;;
11066;SDS011;29763;50.904;5.530;2023-11-21T06:44:09;40.67;;;15.63;;
11066;SDS011;29763;50.904;5.530;2023-11-21T06:46:39;45.30;;;16.20;;
11066;SDS011;29763;50.904;5.530;2023-11-21T06:49:10;48.42;;;16.92;;
11066;SDS011;29763;50.904;5.530;2023-11-21T06:51:42;46.20;;;16.52;;
11066;SDS011;29763;50.904;5.530;2023-11-21T06:54:08;46.08;;;17.27;;
11066;SDS011;29763;50.904;5.530;2023-11-21T06:56:47;49.45;;;18.77;;
11066;SDS011;29763;50.904;5.530;2023-11-21T06:59:19;56.10;;;18.02;;
11066;SDS011;29763;50.904;5.530;2023-11-21T07:02:08;50.57;;;17.27;;
11066;SDS011;29763;50.904;5.530;2023-11-21T07:04:34;50.07;;;17.83;;
11066;SDS011;29763;50.904;5.530;2023-11-21T07:07:14;64.05;;;18.58;;
11066;SDS011;29763;50.904;5.530;2023-11-21T07:12:34;56.33;;;18.40;;
11066;SDS011;29763;50.904;5.530;2023-11-21T07:15:06;64.73;;;19.33;;
11066;SDS011;29763;50.904;5.530;2023-11-21T07:17:38;67.80;;;19.47;;
11066;SDS011;29763;50.904;5.530;2023-11-21T07:20:09;55.43;;;18.33;;
11066;SDS011;29763;50.904;5.530;2023-11-21T07:22:40;53.23;;;18.23;;
11066;SDS011;29763;50.904;5.530;2023-11-21T07:25:26;51.13;;;17.23;;
11066;SDS011;29763;50.904;5.530;2023-11-21T07:27:57;46.63;;;16.48;;
11066;SDS011;29763;50.904;5.530;2023-11-21T07:30:26;53.28;;;17.00;;
11066;SDS011;29763;50.904;5.530;2023-11-21T07:32:57;51.17;;;16.80;;
11066;SDS011;29763;50.904;5.530;2023-11-21T07:35:28;57.47;;;18.10;;
11066;SDS011;29763;50.904;5.530;2023-11-21T07:37:57;50.50;;;18.25;;
11066;SDS011;29763;50.904;5.530;2023-11-21T07:40:35;59.45;;;18.48;;
11066;SDS011;29763;50.904;5.530;2023-11-21T07:43:02;58.08;;;17.70;;
11066;SDS011;29763;50.904;5.530;2023-11-21T07:45:28;51.72;;;17.88;;
11066;SDS011;29763;50.904;5.530;2023-11-21T07:47:59;58.37;;;17.80;;
11066;SDS011;29763;50.904;5.530;2023-11-21T07:50:32;57.10;;;17.60;;
11066;SDS011;29763;50.904;5.530;2023-11-21T07:53:05;55.50;;;17.80;;
11066;SDS011;29763;50.904;5.530;2023-11-21T07:55:31;54.53;;;18.33;;
11066;SDS011;29763;50.904;5.530;2023-11-21T07:58:14;57.23;;;18.43;;
11066;SDS011;29763;50.904;5.530;2023-11-21T08:00:45;55.75;;;18.70;;
11066;SDS011;29763;50.904;5.530;2023-11-21T08:06:13;54.90;;;17.17;;
11066;SDS011;29763;50.904;5.530;2023-11-21T08:08:42;55.17;;;18.25;;
11066;SDS011;29763;50.904;5.530;2023-11-21T08:11:12;60.10;;;18.60;;
11066;SDS011;29763;50.904;5.530;2023-11-21T08:13:41;58.15;;;19.38;;
11066;SDS011;29763;50.904;5.530;2023-11-21T08:16:24;64.32;;;19.15;;
11066;SDS011;29763;50.904;5.530;2023-11-21T08:18:55;55.30;;;18.85;;
11066;SDS011;29763;50.904;5.530;2023-11-21T08:21:23;57.30;;;17.25;;
11066;SDS011;29763;50.904;5.530;2023-11-21T08:23:52;60.65;;;19.98;;
11066;SDS011;29763;50.904;5.530;2023-11-21T08:26:22;59.72;;;18.15;;
11066;SDS011;29763;50.904;5.530;2023-11-21T08:28:54;53.55;;;19.42;;
11066;SDS011;29763;50.904;5.530;2023-11-21T08:31:32;58.93;;;20.17;;
11066;SDS011;29763;50.904;5.530;2023-11-21T08:33:58;54.08;;;18.50;;
11066;SDS011;29763;50.904;5.530;2023-11-21T08:36:32;65.70;;;19.27;;
11066;SDS011;29763;50.904;5.530;2023-11-21T08:39:09;53.85;;;18.90;;
11066;SDS011;29763;50.904;5.530;2023-11-21T08:41:47;54.72;;;18.48;;
11066;SDS011;29763;50.904;5.530;2023-11-21T08:44:17;59.92;;;19.83;;
11066;SDS011;29763;50.904;5.530;2023-11-21T08:46:50;57.42;;;19.67;;
11066;SDS011;29763;50.904;5.530;2023-11-21T08:49:27;53.85;;;18.20;;
11066;SDS011;29763;50.904;5.530;2023-11-21T08:52:15;49.90;;;17.57;;
11066;SDS011;29763;50.904;5.530;2023-11-21T08:54:50;53.05;;;19.48;;
11066;SDS011;29763;50.904;5.530;2023-11-21T08:57:24;51.22;;;19.30;;
11066;SDS011;29763;50.904;5.530;2023-11-21T09:00:11;53.67;;;20.02;;
11066;SDS011;29763;50.904;5.530;2023-11-21T09:02:51;49.10;;;18.35;;
11066;SDS011;29763;50.904;5.530;2023-11-21T09:05:30;49.33;;;18.52;;
11066;SDS011;29763;50.904;5.530;2023-11-21T09:08:03;51.77;;;19.83;;
11066;SDS011;29763;50.904;5.530;2023-11-21T09:10:44;45.35;;;17.73;;
11066;SDS011;29763;50.904;5.530;2023-11-21T09:13:17;48.25;;;19.23;;
11066;SDS011;29763;50.904;5.530;2023-11-21T09:15:44;44.45;;;18.15;;
11066;SDS011;29763;50.904;5.530;2023-11-21T09:18:15;52.05;;;19.25;;
11066;SDS011;29763;50.904;5.530;2023-11-21T09:20:45;49.67;;;20.33;;
11066;SDS011;29763;50.904;5.530;2023-11-21T09:23:36;42.67;;;18.83;;
11066;SDS011;29763;50.904;5.530;2023-11-21T09:26:31;46.75;;;18.98;;
11066;SDS011;29763;50.904;5.530;2023-11-21T09:29:00;40.97;;;16.88;;
11066;SDS011;29763;50.904;5.530;2023-11-21T09:31:30;43.92;;;18.70;;
11066;SDS011;29763;50.904;5.530;2023-11-21T09:33:56;43.38;;;18.17;;
11066;SDS011;29763;50.904;5.530;2023-11-21T09:36:22;39.30;;;17.52;;
11066;SDS011;29763;50.904;5.530;2023-11-21T09:39:03;41.83;;;17.13;;
11066;SDS011;29763;50.904;5.530;2023-11-21T09:41:37;41.47;;;18.40;;
11066;SDS011;29763;50.904;5.530;2023-11-21T09:44:43;42.05;;;17.60;;
11066;SDS011;29763;50.904;5.530;2023-11-21T09:47:35;40.78;;;17.88;;
11066;SDS011;29763;50.904;5.530;2023-11-21T09:50:14;42.72;;;17.10;;
11066;SDS011;29763;50.904;5.530;2023-11-21T09:56:24;37.42;;;17.00;;
11066;SDS011;29763;50.904;5.530;2023-11-21T09:59:23;33.60;;;15.82;;
11066;SDS011;29763;50.904;5.530;2023-11-21T10:02:04;35.78;;;16.85;;
11066;SDS011;29763;50.904;5.530;2023-11-21T10:04:57;36.35;;;16.58;;
11066;SDS011;29763;50.904;5.530;2023-11-21T10:10:45;41.33;;;17.30;;
11066;SDS011;29763;50.904;5.530;2023-11-21T10:13:41;38.42;;;16.42;;
11066;SDS011;29763;50.904;5.530;2023-11-21T10:16:25;35.47;;;15.98;;
11066;SDS011;29763;50.904;5.530;2023-11-21T10:22:08;32.65;;;14.95;;
11066;SDS011;29763;50.904;5.530;2023-11-21T10:24:48;30.55;;;15.30;;
11066;SDS011;29763;50.904;5.530;2023-11-21T10:27:21;30.70;;;14.52;;
11066;SDS011;29763;50.904;5.530;2023-11-21T10:29:50;30.42;;;14.88;;
11066;SDS011;29763;50.904;5.530;2023-11-21T10:32:22;32.17;;;16.13;;
11066;SDS011;29763;50.904;5.530;2023-11-21T10:35:01;35.58;;;15.85;;
11066;SDS011;29763;50.904;5.530;2023-11-21T10:37:36;31.40;;;15.40;;
11066;SDS011;29763;50.904;5.530;2023-11-21T10:40:18;35.95;;;16.25;;
11066;SDS011;29763;50.904;5.530;2023-11-21T10:42:49;29.42;;;15.18;;
11066;SDS011;29763;50.904;5.530;2023-11-21T10:45:24;33.13;;;15.63;;
11066;SDS011;29763;50.904;5.530;2023-11-21T10:48:06;35.20;;;15.65;;
11066;SDS011;29763;50.904;5.530;2023-11-21T10:53:54;30.67;;;15.85;;
11066;SDS011;29763;50.904;5.530;2023-11-21T10:56:41;31.92;;;15.63;;
11066;SDS011;29763;50.904;5.530;2023-11-21T10:59:15;32.00;;;15.02;;
11066;SDS011;29763;50.904;5.530;2023-11-21T11:02:00;27.42;;;14.65;;
11066;SDS011;29763;50.904;5.530;2023-11-21T11:04:45;38.17;;;14.80;;
11066;SDS011;29763;50.904;5.530;2023-11-21T11:07:11;29.63;;;14.90;;
11066;SDS011;29763;50.904;5.530;2023-11-21T11:10:09;27.50;;;15.82;;
11066;SDS011;29763;50.904;5.530;2023-11-21T11:12:41;27.05;;;14.60;;
11066;SDS011;29763;50.904;5.530;2023-11-21T11:15:16;29.08;;;14.18;;
11066;SDS011;29763;50.904;5.530;2023-11-21T11:17:55;27.70;;;14.63;;
11066;SDS011;29763;50.904;5.530;2023-11-21T11:20:35;28.05;;;14.88;;
11066;SDS011;29763;50.904;5.530;2023-11-21T11:32:53;31.95;;;16.48;;
11066;SDS011;29763;50.904;5.530;2023-11-21T11:38:55;30.52;;;15.45;;
11066;SDS011;29763;50.904;5.530;2023-11-21T11:41:48;32.65;;;16.23;;
11066;SDS011;29763;50.904;5.530;2023-11-21T11:47:56;25.67;;;13.93;;
11066;SDS011;29763;50.904;5.530;2023-11-21T11:50:22;25.75;;;14.95;;
11066;SDS011;29763;50.904;5.530;2023-11-21T11:53:20;26.98;;;15.18;;
11066;SDS011;29763;50.904;5.530;2023-11-21T11:58:51;26.65;;;14.82;;
11066;SDS011;29763;50.904;5.530;2023-11-21T12:01:33;25.55;;;15.20;;
11066;SDS011;29763;50.904;5.530;2023-11-21T12:07:13;24.60;;;14.27;;
11066;SDS011;29763;50.904;5.530;2023-11-21T12:09:50;27.92;;;14.02;;
11066;SDS011;29763;50.904;5.530;2023-11-21T12:12:21;28.55;;;14.18;;
11066;SDS011;29763;50.904;5.530;2023-11-21T12:14:50;24.67;;;13.95;;
11066;SDS011;29763;50.904;5.530;2023-11-21T12:17:38;23.85;;;13.15;;
11066;SDS011;29763;50.904;5.530;2023-11-21T12:20:08;21.92;;;12.30;;
11066;SDS011;29763;50.904;5.530;2023-11-21T12:25:53;19.85;;;11.18;;
11066;SDS011;29763;50.904;5.530;2023-11-21T12:28:28;19.33;;;11.18;;
11066;SDS011;29763;50.904;5.530;2023-11-21T12:31:00;20.33;;;11.98;;
11066;SDS011;29763;50.904;5.530;2023-11-21T12:33:25;17.92;;;11.30;;
11066;SDS011;29763;50.904;5.530;2023-11-21T12:36:00;18.17;;;11.00;;
11066;SDS011;29763;50.904;5.530;2023-11-21T12:38:37;17.83;;;10.95;;
11066;SDS011;29763;50.904;5.530;2023-11-21T12:41:09;18.15;;;10.82;;
11066;SDS011;29763;50.904;5.530;2023-11-21T12:43:36;16.35;;;10.60;;
11066;SDS011;29763;50.904;5.530;2023-11-21T12:46:11;19.00;;;11.52;;
11066;SDS011;29763;50.904;5.530;2023-11-21T12:51:50;17.48;;;11.57;;
11066;SDS011;29763;50.904;5.530;2023-11-21T12:57:25;21.85;;;13.38;;
11066;SDS011;29763;50.904;5.530;2023-11-21T13:00:46;19.88;;;12.63;;
11066;SDS011;29763;50.904;5.530;2023-11-21T13:03:51;21.20;;;12.90;;
11066;SDS011;29763;50.904;5.530;2023-11-21T13:06:37;26.00;;;13.75;;
11066;SDS011;29763;50.904;5.530;2023-11-21T13:09:26;24.08;;;14.45;;
11066;SDS011;29763;50.904;5.530;2023-11-21T13:12:25;39.00;;;26.00;;
11066;SDS011;29763;50.904;5.530;2023-11-21T13:14:57;40.65;;;30.98;;
11066;SDS011;29763;50.904;5.530;2023-11-21T13:17:45;34.50;;;21.67;;
11066;SDS011;29763;50.904;5.530;2023-11-21T13:20:16;32.13;;;19.45;;
11066;SDS011;29763;50.904;5.530;2023-11-21T13:26:09;22.73;;;14.20;;
11066;SDS011;29763;50.904;5.530;2023-11-21T13:29:30;19.85;;;11.70;;
11066;SDS011;29763;50.904;5.530;2023-11-21T13:32:15;20.13;;;11.75;;
11066;SDS011;29763;50.904;5.530;2023-11-21T13:34:50;20.00;;;12.82;;
11066;SDS011;29763;50.904;5.530;2023-11-21T13:38:06;19.92;;;12.18;;
11066;SDS011;29763;50.904;5.530;2023-11-21T13:41:00;19.95;;;13.45;;
11066;SDS011;29763;50.904;5.530;2023-11-21T13:43:33;19.13;;;12.73;;
11066;SDS011;29763;50.904;5.530;2023-11-21T13:46:09;19.55;;;12.20;;
11066;SDS011;29763;50.904;5.530;2023-11-21T13:48:50;16.45;;;11.70;;
11066;SDS011;29763;50.904;5.530;2023-11-21T13:51:25;16.85;;;12.10;;
11066;SDS011;29763;50.904;5.530;2023-11-21T13:54:32;18.10;;;12.07;;
11066;SDS011;29763;50.904;5.530;2023-11-21T14:00:00;16.60;;;11.68;;
11066;SDS011;29763;50.904;5.530;2023-11-21T14:05:52;19.00;;;11.57;;
11066;SDS011;29763;50.904;5.530;2023-11-21T14:08:40;17.52;;;12.30;;
11066;SDS011;29763;50.904;5.530;2023-11-21T14:11:31;16.42;;;11.68;;
11066;SDS011;29763;50.904;5.530;2023-11-21T14:15:33;18.23;;;12.10;;
11066;SDS011;29763;50.904;5.530;2023-11-21T14:18:15;18.58;;;12.05;;
11066;SDS011;29763;50.904;5.530;2023-11-21T14:20:56;16.88;;;11.38;;
11066;SDS011;29763;50.904;5.530;2023-11-21T14:23:28;14.07;;;9.70;;
11066;SDS011;29763;50.904;5.530;2023-11-21T14:26:04;11.65;;;8.57;;
11066;SDS011;29763;50.904;5.530;2023-11-21T14:28:47;12.45;;;8.02;;
11066;SDS011;29763;50.904;5.530;2023-11-21T14:31:18;12.88;;;9.07;;
11066;SDS011;29763;50.904;5.530;2023-11-21T14:33:49;15.65;;;9.65;;
11066;SDS011;29763;50.904;5.530;2023-11-21T14:36:37;14.10;;;9.10;;
11066;SDS011;29763;50.904;5.530;2023-11-21T14:39:15;12.75;;;8.80;;
11066;SDS011;29763;50.904;5.530;2023-11-21T14:41:51;13.32;;;9.30;;
11066;SDS011;29763;50.904;5.530;2023-11-21T14:44:18;13.15;;;9.25;;
11066;SDS011;29763;50.904;5.530;2023-11-21T14:46:51;13.48;;;9.77;;
11066;SDS011;29763;50.904;5.530;2023-11-21T14:49:30;14.65;;;10.07;;
11066;SDS011;29763;50.904;5.530;2023-11-21T14:52:18;13.77;;;9.50;;
11066;SDS011;29763;50.904;5.530;2023-11-21T14:55:04;14.38;;;10.40;;
11066;SDS011;29763;50.904;5.530;2023-11-21T14:57:49;16.67;;;10.98;;
11066;SDS011;29763;50.904;5.530;2023-11-21T15:00:38;17.67;;;11.82;;
11066;SDS011;29763;50.904;5.530;2023-11-21T15:06:16;19.60;;;12.68;;
11066;SDS011;29763;50.904;5.530;2023-11-21T15:08:58;20.15;;;14.63;;
11066;SDS011;29763;50.904;5.530;2023-11-21T15:11:46;19.88;;;12.27;;
11066;SDS011;29763;50.904;5.530;2023-11-21T15:14:39;20.90;;;12.57;;
11066;SDS011;29763;50.904;5.530;2023-11-21T15:17:36;16.10;;;10.93;;
11066;SDS011;29763;50.904;5.530;2023-11-21T15:20:21;18.45;;;13.13;;
11066;SDS011;29763;50.904;5.530;2023-11-21T15:23:15;17.70;;;11.98;;
11066;SDS011;29763;50.904;5.530;2023-11-21T15:25:44;21.27;;;13.15;;
11066;SDS011;29763;50.904;5.530;2023-11-21T15:28:18;21.58;;;12.57;;
11066;SDS011;29763;50.904;5.530;2023-11-21T15:30:52;17.23;;;11.68;;
11066;SDS011;29763;50.904;5.530;2023-11-21T15:33:28;16.50;;;11.63;;
11066;SDS011;29763;50.904;5.530;2023-11-21T15:36:08;21.52;;;12.50;;
11066;SDS011;29763;50.904;5.530;2023-11-21T15:38:38;20.35;;;12.82;;
11066;SDS011;29763;50.904;5.530;2023-11-21T15:44:29;18.90;;;12.30;;
11066;SDS011;29763;50.904;5.530;2023-11-21T15:46:58;21.98;;;12.55;;
11066;SDS011;29763;50.904;5.530;2023-11-21T15:49:25;21.02;;;12.02;;
11066;SDS011;29763;50.904;5.530;2023-11-21T15:51:53;19.40;;;12.15;;
11066;SDS011;29763;50.904;5.530;2023-11-21T15:54:35;21.80;;;13.93;;
11066;SDS011;29763;50.904;5.530;2023-11-21T15:57:05;24.25;;;14.05;;
11066;SDS011;29763;50.904;5.530;2023-11-21T15:59:40;22.45;;;12.75;;
11066;SDS011;29763;50.904;5.530;2023-11-21T16:02:10;22.95;;;13.40;;
11066;SDS011;29763;50.904;5.530;2023-11-21T16:05:03;19.80;;;11.40;;
11066;SDS011;29763;50.904;5.530;2023-11-21T16:07:30;21.02;;;11.75;;
11066;SDS011;29763;50.904;5.530;2023-11-21T16:10:04;17.98;;;11.95;;
11066;SDS011;29763;50.904;5.530;2023-11-21T16:12:52;17.98;;;10.82;;
11066;SDS011;29763;50.904;5.530;2023-11-21T16:21:17;18.95;;;11.70;;
11066;SDS011;29763;50.904;5.530;2023-11-21T16:23:45;19.43;;;11.53;;
11066;SDS011;29763;50.904;5.530;2023-11-21T16:26:11;19.47;;;11.30;;
11066;SDS011;29763;50.904;5.530;2023-11-21T16:31:40;15.57;;;10.45;;
11066;SDS011;29763;50.904;5.530;2023-11-21T16:34:20;18.08;;;11.15;;
11066;SDS011;29763;50.904;5.530;2023-11-21T16:36:49;18.98;;;11.70;;
11066;SDS011;29763;50.904;5.530;2023-11-21T16:39:21;20.33;;;12.27;;
11066;SDS011;29763;50.904;5.530;2023-11-21T16:41:51;17.60;;;11.73;;
11066;SDS011;29763;50.904;5.530;2023-11-21T16:44:24;22.03;;;14.53;;
11066;SDS011;29763;50.904;5.530;2023-11-21T16:46:54;20.10;;;13.20;;
11066;SDS011;29763;50.904;5.530;2023-11-21T16:49:42;18.40;;;11.97;;
11066;SDS011;29763;50.904;5.530;2023-11-21T16:52:27;22.42;;;12.90;;
11066;SDS011;29763;50.904;5.530;2023-11-21T16:55:06;23.17;;;14.02;;